TAF KJZI
KJZI 072359Z 0800/0824 04005KT P6SM OVC020 FM080600 03003KT P6SM OVC015 FM080800 VRB03KT P6SM SCT007 OVC010 FM081100 20007KT P6SM VCSH OVC007 FM081600 25009KT 4SM SHRA BR VCTS SCT006CB OVC007 FM082000 30007KT P6SM OVC006=
METAR KJZI
WC KJZI
WS KJZI
WV KJZI